Time;durP1;ratioP1;P1;durP2;ratioP2;P2;SDS_P1;SDS_P2;PMS_P1;PMS_P2;Temp;Humidity;BMP_temperature;BMP_pressure;BME280_temperature;BME280_humidity;BME280_pressure;Samples;Min_cycle;Max_cycle;Signal;HPM_P1;HPM_P2
2023/03/19 00:06:55;;;;;;;;;;;19.30;52.30;;;;;;6041265;29;19959;-90
2023/03/19 01:36:13;;;;;;;;;;;18.70;47.90;;;;;;6082307;29;19923;-91
2023/03/19 01:48:15;;;;;;;;;;;21.10;49.80;;;;;;6091226;29;19923;-90
2023/03/19 01:56:42;;;;;;;;;;;19.60;48.20;;;;;;6106000;29;19954;-90
2023/03/19 02:04:44;;;;;;;;;;;19.20;53.10;;;;;;6104222;29;19923;-90
2023/03/19 02:15:20;;;;;;;;;;;21.40;49.30;;;;;;6614734;23;19907;-52
2023/03/19 02:18:23;;;;;;;;;;;21.30;51.20;;;;;;6160861;28;19914;-46
2023/03/19 02:21:24;;;;;;;;;;;21.10;51.00;;;;;;6160544;28;19911;-50
2023/03/19 02:27:52;;;;;;;;;;;21.50;49.20;;;;;;7145274;23;19906;-47
2023/03/19 02:34:33;;;;;;;;;;;21.30;49.40;;;;;;6780773;23;19907;-44
2023/03/19 02:37:35;;;;;;;;;;;21.20;51.10;;;;;;6323410;23;19976;-44
2023/03/19 02:40:38;;;;;;;;;;;21.60;51.50;;;;;;6160664;28;19907;-50
2023/03/19 02:57:44;;;;;;;;;;;21.50;49.10;;;;;;6725963;23;19907;-48
2023/03/19 03:00:46;;;;;;;;;;;21.30;51.10;;;;;;6159656;28;19907;-48
2023/03/19 03:03:47;;;;;;;;;;;21.10;51.00;;;;;;6160139;28;19907;-50
2023/03/19 03:06:48;;;;;;;;;;;21.60;51.30;;;;;;6160199;28;19907;-50
2023/03/19 03:09:50;;;;;;;;;;;21.50;50.80;;;;;;6159667;28;19970;-48
2023/03/19 03:12:52;;;;;;;;;;;21.30;51.00;;;;;;6160016;28;19914;-49
2023/03/19 03:15:53;;;;;;;;;;;21.30;51.00;;;;;;6159900;28;19927;-50
2023/03/19 03:18:55;;;;;;;;;;;21.20;51.00;;;;;;6159853;28;19938;-48
2023/03/19 03:21:56;;;;;;;;;;;21.40;51.10;;;;;;6159894;28;19914;-50
2023/03/19 03:24:57;;;;;;;;;;;21.50;51.20;;;;;;6159840;28;19922;-49
2023/03/19 03:27:59;;;;;;;;;;;21.30;51.00;;;;;;6159315;28;19907;-49
2023/03/19 03:31:01;;;;;;;;;;;21.00;50.90;;;;;;6203766;23;19925;-49
2023/03/19 03:34:02;;;;;;;;;;;21.20;51.00;;;;;;6159354;28;19907;-51
2023/03/19 03:37:05;;;;;;;;;;;21.70;51.40;;;;;;6158977;28;19931;-51
2023/03/19 03:40:08;;;;;;;;;;;21.40;51.00;;;;;;6159466;28;19910;-51
2023/03/19 03:43:10;;;;;;;;;;;20.90;50.80;;;;;;6159420;28;19934;-50
2023/03/19 03:46:12;;;;;;;;;;;21.30;51.00;;;;;;6159558;28;19926;-50
2023/03/19 03:49:13;;;;;;;;;;;21.00;51.00;;;;;;6159189;28;19930;-49
2023/03/19 03:52:15;;;;;;;;;;;21.30;51.10;;;;;;6158517;28;19933;-51
2023/03/19 03:55:16;;;;;;;;;;;21.10;51.10;;;;;;6158915;28;19906;-51
2023/03/19 03:58:19;;;;;;;;;;;21.10;50.90;;;;;;6158731;28;19907;-51
2023/03/19 04:01:20;;;;;;;;;;;21.00;51.00;;;;;;6158848;28;19913;-51
2023/03/19 04:04:27;;;;;;;;;;;21.30;51.20;;;;;;6158397;28;19911;-51
2023/03/19 04:07:28;;;;;;;;;;;21.40;50.30;;;;;;6158247;29;19913;-52
2023/03/19 04:10:31;;;;;;;;;;;21.30;50.90;;;;;;6158017;28;19923;-50
2023/03/19 04:13:35;;;;;;;;;;;21.00;51.00;;;;;;6158088;29;19917;-51
2023/03/19 04:16:38;;;;;;;;;;;21.30;51.10;;;;;;6157805;28;19923;-51
2023/03/19 04:19:39;;;;;;;;;;;21.00;51.00;;;;;;6157336;29;19982;-48
2023/03/19 04:22:44;;;;;;;;;;;21.00;51.00;;;;;;6157827;28;19907;-51
2023/03/19 04:25:47;;;;;;;;;;;21.00;48.70;;;;;;6158145;28;19973;-51
2023/03/19 04:28:48;;;;;;;;;;;21.30;51.20;;;;;;6158056;29;19907;-51
2023/03/19 04:31:50;;;;;;;;;;;21.00;51.00;;;;;;6158398;28;20021;-50
2023/03/19 04:34:57;;;;;;;;;;;21.30;51.10;;;;;;6158204;28;19962;-51
2023/03/19 04:38:01;;;;;;;;;;;21.30;51.10;;;;;;6158457;28;19929;-51
2023/03/19 04:41:03;;;;;;;;;;;21.30;49.60;;;;;;6158256;28;19990;-49
2023/03/19 04:44:07;;;;;;;;;;;20.90;50.90;;;;;;6158432;28;19975;-50
2023/03/19 04:47:11;;;;;;;;;;;21.20;51.00;;;;;;6160542;28;19906;-48
2023/03/19 04:50:26;;;;;;;;;;;20.90;51.00;;;;;;6162499;28;19974;-49
2023/03/19 04:53:28;;;;;;;;;;;21.10;50.90;;;;;;6162468;28;19946;-47
2023/03/19 04:56:30;;;;;;;;;;;21.30;51.10;;;;;;6162456;28;19906;-50
2023/03/19 04:59:32;;;;;;;;;;;21.30;51.20;;;;;;6161731;28;19978;-51
2023/03/19 05:02:33;;;;;;;;;;;20.80;50.80;;;;;;6162227;28;19911;-49
2023/03/19 05:05:34;;;;;;;;;;;21.20;51.20;;;;;;6162257;28;19923;-50
2023/03/19 05:08:40;;;;;;;;;;;21.40;51.30;;;;;;6193623;28;19906;-50
2023/03/19 05:11:42;;;;;;;;;;;21.00;50.90;;;;;;6162011;28;19919;-50
2023/03/19 05:14:49;;;;;;;;;;;20.90;51.00;;;;;;6162098;28;19913;-51
2023/03/19 05:17:55;;;;;;;;;;;21.30;51.20;;;;;;6161964;28;19938;-52
2023/03/19 05:21:03;;;;;;;;;;;20.90;51.10;;;;;;6161983;28;19907;-52
2023/03/19 05:24:05;;;;;;;;;;;20.90;51.10;;;;;;6161659;28;19910;-50
2023/03/19 05:27:11;;;;;;;;;;;21.00;51.10;;;;;;6161722;28;19938;-50
2023/03/19 05:30:26;;;;;;;;;;;21.20;51.20;;;;;;6161541;28;19907;-50
2023/03/19 05:33:47;;;;;;;;;;;20.90;51.00;;;;;;6161647;28;19929;-51
2023/03/19 05:36:49;;;;;;;;;;;21.20;51.20;;;;;;6161511;28;19914;-52
2023/03/19 05:39:52;;;;;;;;;;;21.50;51.30;;;;;;6161476;28;19919;-52
2023/03/19 05:42:54;;;;;;;;;;;21.00;51.10;;;;;;6161631;28;19974;-52
2023/03/19 05:45:59;;;;;;;;;;;20.80;51.10;;;;;;6161422;28;19913;-51
2023/03/19 05:49:04;;;;;;;;;;;21.20;51.30;;;;;;6161390;28;19929;-48
2023/03/19 05:52:06;;;;;;;;;;;20.80;51.00;;;;;;6161541;28;19913;-49
2023/03/19 05:55:09;;;;;;;;;;;21.00;51.10;;;;;;6161135;29;19930;-48
2023/03/19 05:58:16;;;;;;;;;;;21.00;51.20;;;;;;6160212;28;19945;-48
2023/03/19 06:01:21;;;;;;;;;;;21.20;51.30;;;;;;6161051;28;19923;-50
2023/03/19 06:04:23;;;;;;;;;;;20.90;51.10;;;;;;6160506;28;19923;-51
2023/03/19 06:07:25;;;;;;;;;;;20.90;51.20;;;;;;6160921;28;19969;-51
2023/03/19 06:10:27;;;;;;;;;;;21.50;51.50;;;;;;6160720;28;19913;-52
2023/03/19 06:13:32;;;;;;;;;;;21.00;51.20;;;;;;6160407;28;19906;-50
2023/03/19 06:16:39;;;;;;;;;;;20.80;51.10;;;;;;6160553;28;20002;-52
2023/03/19 06:19:40;;;;;;;;;;;21.00;51.20;;;;;;6160664;28;19907;-51
2023/03/19 06:22:45;;;;;;;;;;;20.70;51.10;;;;;;6160490;28;19919;-50
2023/03/19 06:25:48;;;;;;;;;;;21.30;51.90;;;;;;6160261;28;19926;-51
2023/03/19 06:28:50;;;;;;;;;;;21.20;51.40;;;;;;6160133;28;19995;-49
2023/03/19 06:31:52;;;;;;;;;;;20.90;51.30;;;;;;6160136;28;20100;-51
2023/03/19 06:35:01;;;;;;;;;;;20.80;51.10;;;;;;6160340;28;19930;-51
2023/03/19 06:38:03;;;;;;;;;;;20.90;51.20;;;;;;6160283;28;19927;-50
2023/03/19 06:41:04;;;;;;;;;;;21.50;52.20;;;;;;6160251;28;19907;-51
2023/03/19 06:44:06;;;;;;;;;;;21.20;51.20;;;;;;6160220;28;19975;-50
2023/03/19 06:47:08;;;;;;;;;;;20.80;51.20;;;;;;6160257;28;19906;-51
2023/03/19 06:50:12;;;;;;;;;;;21.00;51.20;;;;;;6159954;28;19925;-52
2023/03/19 06:53:14;;;;;;;;;;;20.80;51.10;;;;;;6159939;28;19930;-51
2023/03/19 06:56:15;;;;;;;;;;;21.10;51.30;;;;;;6159817;28;19922;-52
2023/03/19 06:59:16;;;;;;;;;;;20.70;51.20;;;;;;6159985;28;19907;-52
2023/03/19 07:02:19;;;;;;;;;;;21.30;51.40;;;;;;6159696;28;19970;-50
2023/03/19 07:05:20;;;;;;;;;;;20.80;51.10;;;;;;6159889;28;19930;-51
2023/03/19 07:08:22;;;;;;;;;;;21.10;51.30;;;;;;6159706;28;19923;-51
2023/03/19 07:11:23;;;;;;;;;;;21.20;50.50;;;;;;6158464;28;19918;-51
2023/03/19 07:14:25;;;;;;;;;;;20.90;50.90;;;;;;6159747;28;19906;-51
2023/03/19 07:17:27;;;;;;;;;;;20.80;51.00;;;;;;6159389;29;19923;-50
2023/03/19 07:20:28;;;;;;;;;;;20.80;50.90;;;;;;6159518;28;19931;-51
2023/03/19 07:23:30;;;;;;;;;;;20.80;50.90;;;;;;6159234;28;19931;-51
2023/03/19 07:26:31;;;;;;;;;;;21.20;51.10;;;;;;6159441;28;19907;-51
2023/03/19 07:29:32;;;;;;;;;;;20.80;50.90;;;;;;6159097;28;19922;-51
2023/03/19 07:32:35;;;;;;;;;;;21.10;51.00;;;;;;6158886;28;19926;-51
2023/03/19 07:35:36;;;;;;;;;;;21.40;51.10;;;;;;6159294;29;19954;-52
2023/03/19 07:38:37;;;;;;;;;;;20.80;50.80;;;;;;6174700;28;19910;-52
2023/03/19 07:41:39;;;;;;;;;;;21.20;51.20;;;;;;6159067;28;19938;-51
2023/03/19 07:44:43;;;;;;;;;;;20.80;50.90;;;;;;6159015;28;19906;-51
2023/03/19 07:47:46;;;;;;;;;;;20.80;50.90;;;;;;6158900;28;19913;-51
2023/03/19 07:50:50;;;;;;;;;;;21.10;51.00;;;;;;6158699;28;19930;-50
2023/03/19 07:53:51;;;;;;;;;;;20.70;50.70;;;;;;6158815;29;19914;-52
2023/03/19 07:56:53;;;;;;;;;;;21.10;51.00;;;;;;6158915;28;19955;-51
2023/03/19 07:59:54;;;;;;;;;;;21.20;50.90;;;;;;6159000;28;19929;-49
2023/03/19 08:02:56;;;;;;;;;;;20.80;50.60;;;;;;6158930;28;19906;-51
2023/03/19 08:05:58;;;;;;;;;;;20.90;50.70;;;;;;6158841;29;19907;-52
2023/03/19 08:08:59;;;;;;;;;;;20.90;50.70;;;;;;6158588;28;19922;-51
2023/03/19 08:12:00;;;;;;;;;;;20.80;50.70;;;;;;6157976;28;19907;-51
2023/03/19 08:15:02;;;;;;;;;;;21.10;50.70;;;;;;6158430;28;19914;-50
2023/03/19 08:18:04;;;;;;;;;;;20.90;50.70;;;;;;6173994;28;19975;-51
2023/03/19 08:21:05;;;;;;;;;;;21.20;50.80;;;;;;6157944;28;19931;-49
2023/03/19 08:24:07;;;;;;;;;;;21.60;51.00;;;;;;6158381;29;19938;-51
2023/03/19 08:27:08;;;;;;;;;;;21.20;50.50;;;;;;6158498;28;19946;-52
2023/03/19 08:30:12;;;;;;;;;;;21.50;50.90;;;;;;6158368;28;19911;-51
2023/03/19 08:33:14;;;;;;;;;;;20.90;50.40;;;;;;6158169;28;19907;-50
2023/03/19 08:36:16;;;;;;;;;;;20.90;50.40;;;;;;6158082;28;19930;-50
2023/03/19 08:39:17;;;;;;;;;;;20.90;50.50;;;;;;6158046;28;19970;-52
2023/03/19 08:42:20;;;;;;;;;;;21.50;50.70;;;;;;6158034;28;19923;-51
2023/03/19 08:45:21;;;;;;;;;;;21.20;50.40;;;;;;6158222;28;19907;-51
2023/03/19 08:48:23;;;;;;;;;;;21.10;50.30;;;;;;6157952;28;19946;-52
2023/03/19 08:51:25;;;;;;;;;;;21.10;50.40;;;;;;6157870;28;19914;-49
2023/03/19 08:54:26;;;;;;;;;;;21.00;50.20;;;;;;6157167;28;19950;-52
2023/03/19 08:57:29;;;;;;;;;;;21.30;50.50;;;;;;6157892;28;19990;-48
2023/03/19 09:00:33;;;;;;;;;;;21.70;50.50;;;;;;6157749;29;19930;-51
2023/03/19 09:03:35;;;;;;;;;;;21.30;48.90;;;;;;6157211;28;20007;-51
2023/03/19 09:06:37;;;;;;;;;;;21.40;50.30;;;;;;6157174;29;19923;-51
2023/03/19 09:09:39;;;;;;;;;;;21.30;50.40;;;;;;6157020;28;19923;-49
2023/03/19 09:12:40;;;;;;;;;;;21.00;50.10;;;;;;6156857;28;19923;-51
2023/03/19 09:15:42;;;;;;;;;;;21.40;50.20;;;;;;6157046;29;19925;-50
2023/03/19 09:18:43;;;;;;;;;;;21.50;50.30;;;;;;6156820;28;19914;-52
2023/03/19 09:21:45;;;;;;;;;;;21.30;50.30;;;;;;6156865;28;19930;-52
2023/03/19 09:24:46;;;;;;;;;;;21.10;50.00;;;;;;6156968;28;19907;-51
2023/03/19 09:27:47;;;;;;;;;;;21.20;50.10;;;;;;6157074;28;19930;-50
2023/03/19 09:30:50;;;;;;;;;;;21.10;50.00;;;;;;6157180;28;19926;-50
2023/03/19 09:33:53;;;;;;;;;;;21.40;49.90;;;;;;6158978;28;19943;-52
2023/03/19 09:36:55;;;;;;;;;;;21.70;50.20;;;;;;6161030;29;19923;-51
2023/03/19 09:39:56;;;;;;;;;;;21.30;49.90;;;;;;6161197;28;19922;-52
2023/03/19 09:43:01;;;;;;;;;;;21.70;50.20;;;;;;6161020;28;19910;-50
2023/03/19 09:46:03;;;;;;;;;;;21.40;49.90;;;;;;6160710;28;19930;-51
2023/03/19 09:49:10;;;;;;;;;;;21.00;49.60;;;;;;6159770;29;19923;-52
2023/03/19 09:52:16;;;;;;;;;;;21.20;49.60;;;;;;6160182;29;19906;-53
2023/03/19 09:55:29;;;;;;;;;;;21.60;49.90;;;;;;6160290;28;19906;-51
2023/03/19 09:58:33;;;;;;;;;;;21.00;49.60;;;;;;6159677;28;19933;-51
2023/03/19 10:01:36;;;;;;;;;;;21.60;49.80;;;;;;6160117;29;19929;-51
2023/03/19 10:04:42;;;;;;;;;;;21.30;49.50;;;;;;6159048;28;19907;-49
2023/03/19 10:07:49;;;;;;;;;;;21.60;47.50;;;;;;6160316;29;19906;-51
2023/03/19 10:10:54;;;;;;;;;;;21.10;49.30;;;;;;6160139;28;19911;-52
2023/03/19 10:14:00;;;;;;;;;;;21.00;49.30;;;;;;6160006;28;19947;-50
2023/03/19 10:17:03;;;;;;;;;;;21.50;49.40;;;;;;6160396;29;19923;-51
2023/03/19 10:20:08;;;;;;;;;;;21.70;49.40;;;;;;6159670;28;19989;-51
2023/03/19 10:23:20;;;;;;;;;;;21.40;49.20;;;;;;6160406;28;19930;-51
2023/03/19 10:26:27;;;;;;;;;;;21.60;49.30;;;;;;6160272;28;19907;-52
2023/03/19 10:29:29;;;;;;;;;;;21.20;49.00;;;;;;6160416;28;19907;-52
2023/03/19 10:32:35;;;;;;;;;;;21.70;49.30;;;;;;6159665;29;19930;-50
2023/03/19 10:35:40;;;;;;;;;;;21.40;48.90;;;;;;6159899;28;19906;-50
2023/03/19 10:38:44;;;;;;;;;;;21.10;48.90;;;;;;6159751;28;19907;-52
2023/03/19 10:41:49;;;;;;;;;;;21.50;48.90;;;;;;6159606;28;19927;-51
2023/03/19 10:44:52;;;;;;;;;;;21.80;48.90;;;;;;6159129;28;19931;-52
2023/03/19 10:47:55;;;;;;;;;;;21.60;48.80;;;;;;6159827;28;19907;-52
2023/03/19 10:50:58;;;;;;;;;;;21.70;48.80;;;;;;6159092;28;19923;-52
2023/03/19 10:54:00;;;;;;;;;;;21.40;48.70;;;;;;6159477;28;19923;-52
2023/03/19 10:57:01;;;;;;;;;;;21.90;48.90;;;;;;6159536;28;19932;-52
2023/03/19 11:00:04;;;;;;;;;;;21.20;48.50;;;;;;6159791;29;19929;-51
2023/03/19 11:03:20;;;;;;;;;;;21.20;48.30;;;;;;6159296;28;19907;-51
2023/03/19 11:06:25;;;;;;;;;;;21.50;48.40;;;;;;6159478;28;19917;-51
2023/03/19 11:09:31;;;;;;;;;;;21.80;48.50;;;;;;6159330;28;19913;-50
2023/03/19 11:12:33;;;;;;;;;;;21.40;48.30;;;;;;6159720;28;19922;-48
2023/03/19 11:15:36;;;;;;;;;;;21.70;48.50;;;;;;6159541;28;19986;-50
2023/03/19 11:18:38;;;;;;;;;;;21.40;48.30;;;;;;6159517;28;19970;-51
2023/03/19 11:21:40;;;;;;;;;;;21.60;46.30;;;;;;6159725;28;19913;-50
2023/03/19 11:24:47;;;;;;;;;;;21.60;48.30;;;;;;6159698;28;19930;-51
2023/03/19 11:27:59;;;;;;;;;;;21.30;48.00;;;;;;6159782;28;19907;-48
2023/03/19 11:31:06;;;;;;;;;;;21.40;47.90;;;;;;6159611;28;19914;-49
2023/03/19 11:34:16;;;;;;;;;;;21.70;48.10;;;;;;6159441;28;19950;-50
2023/03/19 11:37:22;;;;;;;;;;;21.40;47.90;;;;;;6159101;28;19906;-52
2023/03/19 11:40:30;;;;;;;;;;;21.30;47.80;;;;;;6159356;28;19943;-52
2023/03/19 11:43:38;;;;;;;;;;;21.40;47.80;;;;;;6158896;28;19930;-50
2023/03/19 11:46:43;;;;;;;;;;;22.10;48.00;;;;;;6158988;28;19906;-52
2023/03/19 11:49:51;;;;;;;;;;;21.50;47.70;;;;;;6159302;28;19930;-49
2023/03/19 11:52:59;;;;;;;;;;;22.00;47.90;;;;;;6159230;28;19930;-50
2023/03/19 11:56:05;;;;;;;;;;;21.80;47.70;;;;;;6158676;28;19927;-52
2023/03/19 11:59:11;;;;;;;;;;;21.40;47.50;;;;;;6158686;28;19907;-51
2023/03/19 12:02:24;;;;;;;;;;;21.70;47.70;;;;;;6158426;28;19915;-50
2023/03/19 12:05:30;;;;;;;;;;;21.30;47.40;;;;;;6158979;28;19978;-50
2023/03/19 12:08:36;;;;;;;;;;;21.60;47.40;;;;;;6158693;28;19914;-48
2023/03/19 12:11:43;;;;;;;;;;;21.80;47.50;;;;;;6158464;28;19914;-49
2023/03/19 12:14:52;;;;;;;;;;;21.50;47.40;;;;;;6158977;28;19906;-49
2023/03/19 12:17:59;;;;;;;;;;;21.80;47.50;;;;;;6158824;28;19921;-47
2023/03/19 12:21:06;;;;;;;;;;;21.50;47.30;;;;;;6158410;28;19913;-49
2023/03/19 12:24:17;;;;;;;;;;;21.70;47.30;;;;;;6158678;28;19907;-48
2023/03/19 12:27:22;;;;;;;;;;;21.50;47.20;;;;;;6158742;28;19911;-50
2023/03/19 12:30:27;;;;;;;;;;;21.30;47.00;;;;;;6158745;28;19926;-51
2023/03/19 12:33:35;;;;;;;;;;;21.70;47.20;;;;;;6158637;28;19906;-50
2023/03/19 12:36:40;;;;;;;;;;;21.40;47.00;;;;;;6158641;28;19930;-50
2023/03/19 12:39:49;;;;;;;;;;;21.80;47.20;;;;;;6158060;28;19946;-52
2023/03/19 12:42:51;;;;;;;;;;;22.10;47.30;;;;;;6158459;28;19954;-49
2023/03/19 12:45:56;;;;;;;;;;;21.40;47.00;;;;;;6158449;28;19926;-48
2023/03/19 12:49:02;;;;;;;;;;;21.90;47.10;;;;;;6158503;28;19906;-50
2023/03/19 12:52:07;;;;;;;;;;;21.80;47.00;;;;;;6158132;28;19922;-50
2023/03/19 12:55:15;;;;;;;;;;;21.90;46.90;;;;;;6158467;28;19934;-49
2023/03/19 12:58:20;;;;;;;;;;;21.90;46.90;;;;;;6158446;28;19907;-51
2023/03/19 13:01:24;;;;;;;;;;;22.10;47.00;;;;;;6158403;28;19970;-51
2023/03/19 13:04:28;;;;;;;;;;;21.80;46.80;;;;;;6158347;28;19945;-51
2023/03/19 13:07:33;;;;;;;;;;;21.40;46.60;;;;;;6157657;28;19911;-49
2023/03/19 13:10:35;;;;;;;;;;;21.70;46.70;;;;;;6162231;28;19907;-51
2023/03/19 13:13:41;;;;;;;;;;;22.10;47.00;;;;;;6193429;28;19947;-50
2023/03/19 13:16:45;;;;;;;;;;;21.80;46.70;;;;;;6162263;28;19906;-50
2023/03/19 13:19:50;;;;;;;;;;;21.80;46.60;;;;;;6162254;28;19906;-50
2023/03/19 13:22:54;;;;;;;;;;;21.80;46.60;;;;;;6162222;28;19906;-51
2023/03/19 13:25:57;;;;;;;;;;;21.90;46.60;;;;;;6162057;28;19984;-50
2023/03/19 13:29:00;;;;;;;;;;;21.50;46.50;;;;;;6161992;28;19906;-48
2023/03/19 13:32:04;;;;;;;;;;;21.60;46.40;;;;;;6161600;28;19922;-51
2023/03/19 13:35:18;;;;;;;;;;;21.70;46.40;;;;;;6161907;28;19907;-50
2023/03/19 13:38:20;;;;;;;;;;;22.00;46.40;;;;;;6161939;28;19907;-50
2023/03/19 13:41:34;;;;;;;;;;;21.60;46.10;;;;;;6161817;28;19933;-51
2023/03/19 13:44:40;;;;;;;;;;;22.10;46.40;;;;;;6161777;28;19911;-51
2023/03/19 13:47:42;;;;;;;;;;;21.80;46.10;;;;;;6161249;28;19929;-49
2023/03/19 13:50:54;;;;;;;;;;;22.10;46.30;;;;;;6161474;28;19915;-49
2023/03/19 13:54:07;;;;;;;;;;;21.90;46.10;;;;;;6161594;28;19907;-51
2023/03/19 13:57:16;;;;;;;;;;;21.80;46.00;;;;;;6161150;28;19906;-49
2023/03/19 14:00:34;;;;;;;;;;;21.80;46.00;;;;;;6136372;29;19970;-49
2023/03/19 14:03:39;;;;;;;;;;;22.30;46.10;;;;;;6137587;29;19906;-49
2023/03/19 14:06:44;;;;;;;;;;;21.70;45.80;;;;;;6137499;29;19974;-48
2023/03/19 14:09:48;;;;;;;;;;;22.10;46.10;;;;;;6137612;29;19915;-50
2023/03/19 14:12:51;;;;;;;;;;;22.10;46.00;;;;;;6137562;29;19914;-51
2023/03/19 14:15:54;;;;;;;;;;;22.10;45.60;;;;;;6137488;29;19909;-48
2023/03/19 14:18:56;;;;;;;;;;;22.10;45.80;;;;;;6137138;29;19926;-49
2023/03/19 14:22:08;;;;;;;;;;;21.70;45.70;;;;;;6137361;29;19907;-50
2023/03/19 14:25:14;;;;;;;;;;;22.00;45.70;;;;;;6105219;29;19931;-51
2023/03/19 14:28:17;;;;;;;;;;;22.20;45.70;;;;;;6137240;29;19914;-50
2023/03/19 14:31:21;;;;;;;;;;;22.10;45.60;;;;;;6204579;23;19934;-49
2023/03/19 14:34:28;;;;;;;;;;;22.20;45.70;;;;;;6160664;28;19923;-51
2023/03/19 14:37:35;;;;;;;;;;;22.00;45.50;;;;;;6160894;28;19907;-50
2023/03/19 14:40:42;;;;;;;;;;;22.30;45.70;;;;;;6160160;28;19930;-50
2023/03/19 14:43:52;;;;;;;;;;;22.00;45.50;;;;;;6160647;28;19930;-48
2023/03/19 14:47:05;;;;;;;;;;;22.20;45.60;;;;;;6160612;28;20012;-50
2023/03/19 14:50:16;;;;;;;;;;;21.90;45.30;;;;;;6160449;28;19914;-49
2023/03/19 14:53:20;;;;;;;;;;;21.90;45.20;;;;;;6160439;28;19985;-49
2023/03/19 14:56:24;;;;;;;;;;;21.80;45.10;;;;;;6160382;28;19907;-51
2023/03/19 14:59:35;;;;;;;;;;;22.00;45.20;;;;;;6159828;28;19907;-47
2023/03/19 15:02:40;;;;;;;;;;;22.20;45.40;;;;;;6160224;28;19910;-48
2023/03/19 15:05:48;;;;;;;;;;;22.40;45.50;;;;;;6160036;28;19906;-50
2023/03/19 15:08:51;;;;;;;;;;;22.20;43.60;;;;;;6160275;28;19929;-52
2023/03/19 15:11:59;;;;;;;;;;;22.40;45.50;;;;;;6160034;28;19907;-48
2023/03/19 15:15:08;;;;;;;;;;;22.00;45.10;;;;;;6159914;28;19911;-50
2023/03/19 15:18:11;;;;;;;;;;;22.30;45.30;;;;;;6160054;28;19910;-48
2023/03/19 15:21:12;;;;;;;;;;;22.00;45.10;;;;;;6159598;28;19917;-48
2023/03/19 15:24:15;;;;;;;;;;;22.20;45.20;;;;;;6159965;28;19919;-49
2023/03/19 15:27:17;;;;;;;;;;;21.90;45.00;;;;;;6159789;28;19907;-47
2023/03/19 15:30:20;;;;;;;;;;;21.80;44.80;;;;;;6158586;28;19907;-50
2023/03/19 15:33:28;;;;;;;;;;;22.20;45.10;;;;;;6159104;28;19907;-50
2023/03/19 15:36:41;;;;;;;;;;;22.40;45.10;;;;;;6159643;28;19907;-50
2023/03/19 15:39:45;;;;;;;;;;;22.00;45.00;;;;;;6159459;28;19907;-51
2023/03/19 15:42:47;;;;;;;;;;;22.30;45.10;;;;;;6159553;28;19933;-48
2023/03/19 15:45:49;;;;;;;;;;;22.30;45.00;;;;;;6159389;28;19907;-49
2023/03/19 15:48:53;;;;;;;;;;;22.60;45.20;;;;;;6159124;28;19906;-52
2023/03/19 15:51:57;;;;;;;;;;;22.00;44.70;;;;;;6159363;28;19914;-50
2023/03/19 15:55:00;;;;;;;;;;;22.50;45.00;;;;;;6158782;28;19911;-47
2023/03/19 15:58:04;;;;;;;;;;;22.20;44.70;;;;;;6159168;28;19922;-49
2023/03/19 16:01:07;;;;;;;;;;;22.30;44.80;;;;;;6159260;28;19907;-48
2023/03/19 16:04:13;;;;;;;;;;;22.30;44.70;;;;;;6193994;23;19914;-50
2023/03/19 16:07:21;;;;;;;;;;;22.30;43.00;;;;;;6183110;28;19950;-49
2023/03/19 16:10:33;;;;;;;;;;;22.20;44.50;;;;;;6182386;28;19912;-50
2023/03/19 16:13:37;;;;;;;;;;;22.20;44.40;;;;;;6182727;28;19913;-51
2023/03/19 16:16:39;;;;;;;;;;;22.20;44.50;;;;;;6182836;28;19910;-49
2023/03/19 16:19:50;;;;;;;;;;;22.00;44.00;;;;;;6182806;28;19906;-51
2023/03/19 16:22:53;;;;;;;;;;;22.20;44.40;;;;;;6182848;28;19926;-48
2023/03/19 16:25:55;;;;;;;;;;;21.80;44.20;;;;;;6182734;28;19923;-49
2023/03/19 16:29:01;;;;;;;;;;;21.90;44.50;;;;;;6182567;28;19907;-48
2023/03/19 16:32:14;;;;;;;;;;;22.30;44.40;;;;;;6181968;28;19941;-48
2023/03/19 16:35:18;;;;;;;;;;;22.20;44.30;;;;;;6182431;28;19926;-46
2023/03/19 16:38:21;;;;;;;;;;;22.30;44.40;;;;;;6182487;28;19907;-49
2023/03/19 16:41:28;;;;;;;;;;;22.30;44.20;;;;;;6182290;28;19913;-51
2023/03/19 16:44:29;;;;;;;;;;;22.60;44.40;;;;;;6186636;28;19913;-49
2023/03/19 16:47:32;;;;;;;;;;;22.20;44.30;;;;;;6186666;28;19910;-51
2023/03/19 16:50:36;;;;;;;;;;;22.10;44.20;;;;;;6186495;28;19906;-51
2023/03/19 16:53:38;;;;;;;;;;;21.90;43.90;;;;;;6186317;28;19910;-50
2023/03/19 16:56:39;;;;;;;;;;;22.40;44.90;;;;;;6186335;28;19907;-50
2023/03/19 16:59:41;;;;;;;;;;;22.20;44.10;;;;;;6380386;23;19915;-44
2023/03/19 17:02:43;;;;;;;;;;;22.30;44.20;;;;;;6162964;28;19977;-51
2023/03/19 17:05:45;;;;;;;;;;;22.50;44.30;;;;;;6162525;28;19907;-51
2023/03/19 17:08:46;;;;;;;;;;;22.60;44.30;;;;;;6493882;23;19930;-49
2023/03/19 17:11:49;;;;;;;;;;;22.30;44.10;;;;;;6161923;28;19923;-46
2023/03/19 17:14:51;;;;;;;;;;;22.50;44.20;;;;;;6162404;28;19913;-49
2023/03/19 17:17:53;;;;;;;;;;;22.50;44.10;;;;;;6162038;28;19913;-50
2023/03/19 17:20:56;;;;;;;;;;;22.50;43.70;;;;;;6161911;28;19907;-48
2023/03/19 17:23:58;;;;;;;;;;;22.50;44.00;;;;;;6162021;28;19907;-52
2023/03/19 17:27:01;;;;;;;;;;;22.40;43.90;;;;;;6162041;28;19914;-50
2023/03/19 17:30:03;;;;;;;;;;;22.40;44.10;;;;;;6161861;28;19907;-48
2023/03/19 17:33:04;;;;;;;;;;;22.40;44.00;;;;;;6161939;28;19913;-50
2023/03/19 17:36:08;;;;;;;;;;;22.50;43.90;;;;;;6161853;28;19978;-50
2023/03/19 17:39:10;;;;;;;;;;;22.30;43.60;;;;;;6161691;28;19930;-50
2023/03/19 17:42:17;;;;;;;;;;;22.70;43.90;;;;;;6161873;28;19906;-48
2023/03/19 17:45:19;;;;;;;;;;;22.90;44.00;;;;;;6161158;28;19907;-49
2023/03/19 17:48:22;;;;;;;;;;;22.30;43.60;;;;;;6161532;28;19913;-49
2023/03/19 17:51:24;;;;;;;;;;;22.30;43.60;;;;;;6161536;28;19911;-50
2023/03/19 17:54:26;;;;;;;;;;;22.30;43.50;;;;;;6159928;28;19906;-48
2023/03/19 17:57:28;;;;;;;;;;;22.80;43.80;;;;;;6161132;28;19907;-49
2023/03/19 18:00:29;;;;;;;;;;;22.40;43.80;;;;;;6161320;28;19913;-50
2023/03/19 18:03:35;;;;;;;;;;;22.90;44.10;;;;;;6161084;28;19914;-50
2023/03/19 18:06:39;;;;;;;;;;;22.30;43.70;;;;;;6161316;28;19910;-52
2023/03/19 18:09:40;;;;;;;;;;;22.80;43.90;;;;;;6161074;28;19930;-51
2023/03/19 18:12:43;;;;;;;;;;;22.40;43.90;;;;;;6160716;28;19938;-49
2023/03/19 18:15:45;;;;;;;;;;;22.30;43.80;;;;;;6160853;28;19934;-51
2023/03/19 18:18:47;;;;;;;;;;;22.60;43.70;;;;;;6160966;28;19914;-49
2023/03/19 18:21:49;;;;;;;;;;;22.90;44.00;;;;;;6160632;28;19923;-51
2023/03/19 18:24:51;;;;;;;;;;;22.30;43.80;;;;;;6160684;28;19962;-46
2023/03/19 18:27:53;;;;;;;;;;;22.30;43.80;;;;;;6160836;28;19930;-51
2023/03/19 18:30:56;;;;;;;;;;;22.60;43.80;;;;;;6160677;28;19907;-52
2023/03/19 18:34:00;;;;;;;;;;;22.80;44.00;;;;;;6420664;23;19928;-41
2023/03/19 18:37:02;;;;;;;;;;;22.50;42.60;;;;;;6182175;29;19906;-48
2023/03/19 18:40:03;;;;;;;;;;;22.80;43.90;;;;;;6184543;28;19906;-51
2023/03/19 18:43:06;;;;;;;;;;;22.40;43.60;;;;;;6184426;28;19906;-52
2023/03/19 18:46:08;;;;;;;;;;;22.90;44.00;;;;;;6184473;28;19918;-49
2023/03/19 18:49:15;;;;;;;;;;;22.60;44.40;;;;;;6184315;28;19933;-50
2023/03/19 18:52:17;;;;;;;;;;;22.30;43.70;;;;;;6184077;28;19914;-49
2023/03/19 18:55:22;;;;;;;;;;;22.30;43.80;;;;;;6184393;28;19907;-51
2023/03/19 18:58:27;;;;;;;;;;;22.70;44.00;;;;;;6183648;29;19977;-52
2023/03/19 19:01:28;;;;;;;;;;;22.40;44.00;;;;;;6184043;28;19914;-51
2023/03/19 19:04:30;;;;;;;;;;;22.70;44.20;;;;;;6184013;28;19974;-50
2023/03/19 19:07:31;;;;;;;;;;;22.20;43.80;;;;;;6184018;28;19907;-51
2023/03/19 19:10:34;;;;;;;;;;;22.60;44.20;;;;;;6183734;28;19913;-48
2023/03/19 19:13:39;;;;;;;;;;;22.40;44.00;;;;;;6163333;28;19907;-51
2023/03/19 19:16:56;;;;;;;;;;;22.20;44.00;;;;;;6159871;29;19934;-51
2023/03/19 19:19:58;;;;;;;;;;;22.30;44.10;;;;;;6159641;29;19938;-49
2023/03/19 19:22:59;;;;;;;;;;;22.50;44.20;;;;;;6159645;29;19907;-49
2023/03/19 19:26:00;;;;;;;;;;;22.00;44.00;;;;;;6159614;29;19907;-51
2023/03/19 19:29:03;;;;;;;;;;;22.80;44.50;;;;;;6159343;28;19934;-50
2023/03/19 19:32:17;;;;;;;;;;;22.30;44.20;;;;;;6158668;29;19973;-50
2023/03/19 19:35:19;;;;;;;;;;;22.20;42.40;;;;;;6159007;29;19934;-49
2023/03/19 19:38:23;;;;;;;;;;;22.30;44.30;;;;;;6159051;29;19906;-47
2023/03/19 19:41:26;;;;;;;;;;;21.90;44.30;;;;;;6158503;28;19973;-51
2023/03/19 19:44:28;;;;;;;;;;;22.10;44.20;;;;;;6158720;29;19913;-50
2023/03/19 19:47:29;;;;;;;;;;;22.10;44.40;;;;;;6158877;29;19927;-49
2023/03/19 19:50:31;;;;;;;;;;;22.30;44.30;;;;;;6158820;29;19907;-50
2023/03/19 19:53:35;;;;;;;;;;;22.40;44.50;;;;;;6158563;28;19907;-52
2023/03/19 19:56:42;;;;;;;;;;;22.30;44.50;;;;;;6158800;29;19978;-52
2023/03/19 19:59:44;;;;;;;;;;;22.60;44.50;;;;;;6158687;29;19922;-53
2023/03/19 20:02:46;;;;;;;;;;;22.10;44.40;;;;;;6157889;29;19922;-51
2023/03/19 20:05:50;;;;;;;;;;;22.00;44.50;;;;;;6157479;28;19981;-52
2023/03/19 20:08:51;;;;;;;;;;;22.00;44.40;;;;;;6154554;29;19923;-50